sensor_id;sensor_type;location;lat;lon;timestamp;P1;durP1;ratioP1;P2;durP2;ratioP2
2019;SDS011;1014;51.960;8.542;2023-05-14T00:02:23;27.40;;;25.73;;
2019;SDS011;1014;51.960;8.542;2023-05-14T00:04:50;27.67;;;26.00;;
2019;SDS011;1014;51.960;8.542;2023-05-14T00:07:17;27.07;;;25.47;;
2019;SDS011;1014;51.960;8.542;2023-05-14T00:09:45;26.67;;;24.87;;
2019;SDS011;1014;51.960;8.542;2023-05-14T00:12:12;26.83;;;25.13;;
2019;SDS011;1014;51.960;8.542;2023-05-14T00:14:39;25.10;;;23.60;;
2019;SDS011;1014;51.960;8.542;2023-05-14T00:17:06;25.73;;;24.03;;
2019;SDS011;1014;51.960;8.542;2023-05-14T00:19:33;25.80;;;24.30;;
2019;SDS011;1014;51.960;8.542;2023-05-14T00:22:00;25.33;;;23.93;;
2019;SDS011;1014;51.960;8.542;2023-05-14T00:24:27;25.77;;;24.20;;
2019;SDS011;1014;51.960;8.542;2023-05-14T00:26:55;26.80;;;24.87;;
2019;SDS011;1014;51.960;8.542;2023-05-14T00:29:22;26.87;;;25.10;;
2019;SDS011;1014;51.960;8.542;2023-05-14T00:31:49;25.67;;;24.03;;
2019;SDS011;1014;51.960;8.542;2023-05-14T00:34:16;25.90;;;24.40;;
2019;SDS011;1014;51.960;8.542;2023-05-14T00:36:43;25.90;;;24.30;;
2019;SDS011;1014;51.960;8.542;2023-05-14T00:39:10;26.83;;;25.10;;
2019;SDS011;1014;51.960;8.542;2023-05-14T00:41:37;25.17;;;23.43;;
2019;SDS011;1014;51.960;8.542;2023-05-14T00:44:05;26.07;;;24.57;;
2019;SDS011;1014;51.960;8.542;2023-05-14T00:46:32;24.87;;;23.13;;
2019;SDS011;1014;51.960;8.542;2023-05-14T00:48:59;24.67;;;23.17;;
2019;SDS011;1014;51.960;8.542;2023-05-14T00:51:26;26.10;;;23.90;;
2019;SDS011;1014;51.960;8.542;2023-05-14T00:53:53;25.57;;;24.00;;
2019;SDS011;1014;51.960;8.542;2023-05-14T00:56:21;26.37;;;24.53;;
2019;SDS011;1014;51.960;8.542;2023-05-14T00:58:48;25.00;;;23.70;;
2019;SDS011;1014;51.960;8.542;2023-05-14T01:01:17;25.53;;;24.03;;
2019;SDS011;1014;51.960;8.542;2023-05-14T01:03:44;24.00;;;22.70;;
2019;SDS011;1014;51.960;8.542;2023-05-14T01:06:12;24.90;;;23.37;;
2019;SDS011;1014;51.960;8.542;2023-05-14T01:08:43;25.70;;;24.10;;
2019;SDS011;1014;51.960;8.542;2023-05-14T01:11:13;25.37;;;23.97;;
2019;SDS011;1014;51.960;8.542;2023-05-14T01:13:43;25.07;;;23.57;;
2019;SDS011;1014;51.960;8.542;2023-05-14T01:16:12;25.50;;;23.70;;
2019;SDS011;1014;51.960;8.542;2023-05-14T01:18:43;26.07;;;24.47;;
2019;SDS011;1014;51.960;8.542;2023-05-14T01:21:17;26.40;;;24.20;;
2019;SDS011;1014;51.960;8.542;2023-05-14T01:23:47;28.00;;;25.93;;
2019;SDS011;1014;51.960;8.542;2023-05-14T01:26:14;25.10;;;23.50;;
2019;SDS011;1014;51.960;8.542;2023-05-14T01:28:41;26.00;;;24.40;;
2019;SDS011;1014;51.960;8.542;2023-05-14T01:31:10;26.50;;;24.17;;
2019;SDS011;1014;51.960;8.542;2023-05-14T01:33:41;25.57;;;24.00;;
2019;SDS011;1014;51.960;8.542;2023-05-14T01:36:09;25.60;;;24.10;;
2019;SDS011;1014;51.960;8.542;2023-05-14T01:38:36;26.20;;;24.70;;
2019;SDS011;1014;51.960;8.542;2023-05-14T01:41:05;25.53;;;23.93;;
2019;SDS011;1014;51.960;8.542;2023-05-14T01:43:33;24.77;;;23.37;;
2019;SDS011;1014;51.960;8.542;2023-05-14T01:46:01;26.30;;;24.40;;
2019;SDS011;1014;51.960;8.542;2023-05-14T01:48:28;26.20;;;24.70;;
2019;SDS011;1014;51.960;8.542;2023-05-14T01:50:55;24.80;;;23.40;;
2019;SDS011;1014;51.960;8.542;2023-05-14T01:53:22;25.90;;;24.20;;
2019;SDS011;1014;51.960;8.542;2023-05-14T01:55:49;26.00;;;23.90;;
2019;SDS011;1014;51.960;8.542;2023-05-14T01:58:18;24.93;;;23.40;;
2019;SDS011;1014;51.960;8.542;2023-05-14T02:00:45;24.70;;;23.30;;
2019;SDS011;1014;51.960;8.542;2023-05-14T02:03:12;25.27;;;23.83;;
2019;SDS011;1014;51.960;8.542;2023-05-14T02:05:39;26.53;;;24.93;;
2019;SDS011;1014;51.960;8.542;2023-05-14T02:08:06;26.10;;;24.60;;
2019;SDS011;1014;51.960;8.542;2023-05-14T02:10:32;24.00;;;22.60;;
2019;SDS011;1014;51.960;8.542;2023-05-14T02:12:59;26.27;;;24.63;;
2019;SDS011;1014;51.960;8.542;2023-05-14T02:15:28;23.90;;;22.60;;
2019;SDS011;1014;51.960;8.542;2023-05-14T02:17:55;24.83;;;23.07;;
2019;SDS011;1014;51.960;8.542;2023-05-14T02:20:22;25.17;;;23.50;;
2019;SDS011;1014;51.960;8.542;2023-05-14T02:22:49;25.50;;;24.00;;
2019;SDS011;1014;51.960;8.542;2023-05-14T02:25:16;25.73;;;24.17;;
2019;SDS011;1014;51.960;8.542;2023-05-14T02:27:43;25.13;;;23.50;;
2019;SDS011;1014;51.960;8.542;2023-05-14T02:30:10;24.10;;;22.60;;
2019;SDS011;1014;51.960;8.542;2023-05-14T02:32:39;23.90;;;22.60;;
2019;SDS011;1014;51.960;8.542;2023-05-14T02:35:06;24.20;;;22.80;;
2019;SDS011;1014;51.960;8.542;2023-05-14T02:37:33;24.77;;;23.37;;
2019;SDS011;1014;51.960;8.542;2023-05-14T02:40:00;23.83;;;22.43;;
2019;SDS011;1014;51.960;8.542;2023-05-14T02:42:28;24.90;;;23.50;;
2019;SDS011;1014;51.960;8.542;2023-05-14T02:44:55;25.07;;;23.73;;
2019;SDS011;1014;51.960;8.542;2023-05-14T02:47:22;24.33;;;23.10;;
2019;SDS011;1014;51.960;8.542;2023-05-14T02:49:50;24.23;;;22.83;;
2019;SDS011;1014;51.960;8.542;2023-05-14T02:52:17;24.23;;;23.03;;
2019;SDS011;1014;51.960;8.542;2023-05-14T02:54:44;24.47;;;22.60;;
2019;SDS011;1014;51.960;8.542;2023-05-14T02:57:11;23.77;;;22.20;;
2019;SDS011;1014;51.960;8.542;2023-05-14T02:59:38;23.90;;;22.60;;
2019;SDS011;1014;51.960;8.542;2023-05-14T03:02:05;24.20;;;22.77;;
2019;SDS011;1014;51.960;8.542;2023-05-14T03:04:32;24.13;;;22.83;;
2019;SDS011;1014;51.960;8.542;2023-05-14T03:07:00;23.50;;;22.00;;
2019;SDS011;1014;51.960;8.542;2023-05-14T03:09:27;23.50;;;22.20;;
2019;SDS011;1014;51.960;8.542;2023-05-14T03:11:55;23.87;;;22.57;;
2019;SDS011;1014;51.960;8.542;2023-05-14T03:14:22;24.10;;;22.70;;
2019;SDS011;1014;51.960;8.542;2023-05-14T03:16:49;24.50;;;23.00;;
2019;SDS011;1014;51.960;8.542;2023-05-14T03:19:16;24.20;;;22.80;;
2019;SDS011;1014;51.960;8.542;2023-05-14T03:21:43;23.93;;;22.43;;
2019;SDS011;1014;51.960;8.542;2023-05-14T03:24:11;24.90;;;23.50;;
2019;SDS011;1014;51.960;8.542;2023-05-14T03:26:38;24.37;;;22.97;;
2019;SDS011;1014;51.960;8.542;2023-05-14T03:29:05;24.13;;;22.73;;
2019;SDS011;1014;51.960;8.542;2023-05-14T03:31:33;24.40;;;23.00;;
2019;SDS011;1014;51.960;8.542;2023-05-14T03:34:00;24.50;;;23.10;;
2019;SDS011;1014;51.960;8.542;2023-05-14T03:36:27;23.10;;;21.80;;
2019;SDS011;1014;51.960;8.542;2023-05-14T03:38:55;27.00;;;25.30;;
2019;SDS011;1014;51.960;8.542;2023-05-14T03:41:24;25.40;;;23.87;;
2019;SDS011;1014;51.960;8.542;2023-05-14T03:43:51;24.57;;;23.17;;
2019;SDS011;1014;51.960;8.542;2023-05-14T03:46:18;25.93;;;24.43;;
2019;SDS011;1014;51.960;8.542;2023-05-14T03:48:45;25.00;;;23.60;;
2019;SDS011;1014;51.960;8.542;2023-05-14T03:51:12;24.20;;;22.90;;
2019;SDS011;1014;51.960;8.542;2023-05-14T03:53:38;25.33;;;23.43;;
2019;SDS011;1014;51.960;8.542;2023-05-14T03:56:05;23.97;;;22.67;;
2019;SDS011;1014;51.960;8.542;2023-05-14T03:58:34;25.00;;;23.30;;
2019;SDS011;1014;51.960;8.542;2023-05-14T04:01:01;24.87;;;23.03;;
2019;SDS011;1014;51.960;8.542;2023-05-14T04:03:28;23.73;;;22.43;;
2019;SDS011;1014;51.960;8.542;2023-05-14T04:05:55;24.50;;;23.10;;
2019;SDS011;1014;51.960;8.542;2023-05-14T04:08:22;24.30;;;22.77;;
2019;SDS011;1014;51.960;8.542;2023-05-14T04:10:49;25.60;;;24.10;;
2019;SDS011;1014;51.960;8.542;2023-05-14T04:13:16;25.07;;;23.67;;
2019;SDS011;1014;51.960;8.542;2023-05-14T04:15:44;24.53;;;23.10;;
2019;SDS011;1014;51.960;8.542;2023-05-14T04:18:11;25.00;;;23.40;;
2019;SDS011;1014;51.960;8.542;2023-05-14T04:20:38;23.90;;;22.60;;
2019;SDS011;1014;51.960;8.542;2023-05-14T04:23:05;23.47;;;22.17;;
2019;SDS011;1014;51.960;8.542;2023-05-14T04:25:32;24.23;;;22.83;;
2019;SDS011;1014;51.960;8.542;2023-05-14T04:27:59;24.60;;;22.90;;
2019;SDS011;1014;51.960;8.542;2023-05-14T04:30:26;22.20;;;21.00;;
2019;SDS011;1014;51.960;8.542;2023-05-14T04:32:54;24.53;;;23.10;;
2019;SDS011;1014;51.960;8.542;2023-05-14T04:35:23;23.83;;;22.43;;
2019;SDS011;1014;51.960;8.542;2023-05-14T04:37:50;23.37;;;22.07;;
2019;SDS011;1014;51.960;8.542;2023-05-14T04:40:17;22.73;;;21.37;;
2019;SDS011;1014;51.960;8.542;2023-05-14T04:42:44;24.30;;;22.57;;
2019;SDS011;1014;51.960;8.542;2023-05-14T04:45:11;23.97;;;22.43;;
2019;SDS011;1014;51.960;8.542;2023-05-14T04:47:38;22.47;;;21.23;;
2019;SDS011;1014;51.960;8.542;2023-05-14T04:50:07;23.90;;;22.50;;
2019;SDS011;1014;51.960;8.542;2023-05-14T04:52:34;23.53;;;22.10;;
2019;SDS011;1014;51.960;8.542;2023-05-14T04:55:02;23.87;;;22.47;;
2019;SDS011;1014;51.960;8.542;2023-05-14T04:57:29;22.77;;;21.50;;
2019;SDS011;1014;51.960;8.542;2023-05-14T04:59:56;23.60;;;22.30;;
2019;SDS011;1014;51.960;8.542;2023-05-14T05:02:23;23.50;;;22.03;;
2019;SDS011;1014;51.960;8.542;2023-05-14T05:04:50;22.07;;;20.87;;
2019;SDS011;1014;51.960;8.542;2023-05-14T05:07:18;23.03;;;21.70;;
2019;SDS011;1014;51.960;8.542;2023-05-14T05:09:45;23.50;;;22.10;;
2019;SDS011;1014;51.960;8.542;2023-05-14T05:12:12;22.87;;;21.57;;
2019;SDS011;1014;51.960;8.542;2023-05-14T05:14:39;23.47;;;22.00;;
2019;SDS011;1014;51.960;8.542;2023-05-14T05:17:06;22.47;;;21.17;;
2019;SDS011;1014;51.960;8.542;2023-05-14T05:19:33;23.23;;;21.77;;
2019;SDS011;1014;51.960;8.542;2023-05-14T05:22:00;23.00;;;21.70;;
2019;SDS011;1014;51.960;8.542;2023-05-14T05:24:29;22.73;;;21.43;;
2019;SDS011;1014;51.960;8.542;2023-05-14T05:26:56;22.50;;;21.30;;
2019;SDS011;1014;51.960;8.542;2023-05-14T05:29:23;23.73;;;22.37;;
2019;SDS011;1014;51.960;8.542;2023-05-14T05:31:50;21.90;;;20.80;;
2019;SDS011;1014;51.960;8.542;2023-05-14T05:34:17;22.13;;;20.90;;
2019;SDS011;1014;51.960;8.542;2023-05-14T05:36:44;22.67;;;21.27;;
2019;SDS011;1014;51.960;8.542;2023-05-14T05:39:11;22.60;;;21.30;;
2019;SDS011;1014;51.960;8.542;2023-05-14T05:41:40;22.80;;;21.60;;
2019;SDS011;1014;51.960;8.542;2023-05-14T05:44:07;21.47;;;20.37;;
2019;SDS011;1014;51.960;8.542;2023-05-14T05:46:34;21.63;;;20.53;;
2019;SDS011;1014;51.960;8.542;2023-05-14T05:49:01;22.43;;;21.23;;
2019;SDS011;1014;51.960;8.542;2023-05-14T05:51:28;21.53;;;20.47;;
2019;SDS011;1014;51.960;8.542;2023-05-14T05:53:55;22.40;;;21.00;;
2019;SDS011;1014;51.960;8.542;2023-05-14T05:56:22;21.30;;;20.20;;
2019;SDS011;1014;51.960;8.542;2023-05-14T05:58:50;25.20;;;23.50;;
2019;SDS011;1014;51.960;8.542;2023-05-14T06:01:17;22.30;;;21.10;;
2019;SDS011;1014;51.960;8.542;2023-05-14T06:03:44;21.83;;;20.73;;
2019;SDS011;1014;51.960;8.542;2023-05-14T06:06:11;23.63;;;22.40;;
2019;SDS011;1014;51.960;8.542;2023-05-14T06:08:39;22.50;;;21.30;;
2019;SDS011;1014;51.960;8.542;2023-05-14T06:11:06;22.17;;;20.87;;
2019;SDS011;1014;51.960;8.542;2023-05-14T06:13:33;22.30;;;21.10;;
2019;SDS011;1014;51.960;8.542;2023-05-14T06:16:01;22.57;;;21.47;;
2019;SDS011;1014;51.960;8.542;2023-05-14T06:18:28;22.00;;;20.90;;
2019;SDS011;1014;51.960;8.542;2023-05-14T06:20:55;22.43;;;21.23;;
2019;SDS011;1014;51.960;8.542;2023-05-14T06:23:24;22.80;;;21.60;;
2019;SDS011;1014;51.960;8.542;2023-05-14T06:25:51;21.77;;;20.67;;
2019;SDS011;1014;51.960;8.542;2023-05-14T06:28:18;22.77;;;21.57;;
2019;SDS011;1014;51.960;8.542;2023-05-14T06:30:45;22.70;;;21.50;;
2019;SDS011;1014;51.960;8.542;2023-05-14T06:33:16;23.33;;;21.73;;
2019;SDS011;1014;51.960;8.542;2023-05-14T06:35:43;22.80;;;21.50;;
2019;SDS011;1014;51.960;8.542;2023-05-14T06:38:10;22.93;;;21.73;;
2019;SDS011;1014;51.960;8.542;2023-05-14T06:40:37;24.03;;;22.40;;
2019;SDS011;1014;51.960;8.542;2023-05-14T06:43:04;23.77;;;22.37;;
2019;SDS011;1014;51.960;8.542;2023-05-14T06:45:31;23.33;;;22.03;;
2019;SDS011;1014;51.960;8.542;2023-05-14T06:47:58;23.73;;;22.43;;
2019;SDS011;1014;51.960;8.542;2023-05-14T06:50:26;24.07;;;22.77;;
2019;SDS011;1014;51.960;8.542;2023-05-14T06:52:53;24.10;;;22.70;;
2019;SDS011;1014;51.960;8.542;2023-05-14T06:55:20;23.07;;;21.73;;
2019;SDS011;1014;51.960;8.542;2023-05-14T06:57:47;24.00;;;22.70;;
2019;SDS011;1014;51.960;8.542;2023-05-14T07:00:15;23.50;;;22.20;;
2019;SDS011;1014;51.960;8.542;2023-05-14T07:02:42;23.33;;;22.13;;
2019;SDS011;1014;51.960;8.542;2023-05-14T07:05:09;24.57;;;22.83;;
2019;SDS011;1014;51.960;8.542;2023-05-14T07:07:38;23.67;;;22.37;;
2019;SDS011;1014;51.960;8.542;2023-05-14T07:10:05;24.40;;;23.10;;
2019;SDS011;1014;51.960;8.542;2023-05-14T07:12:33;22.60;;;21.40;;
2019;SDS011;1014;51.960;8.542;2023-05-14T07:15:00;22.40;;;21.20;;
2019;SDS011;1014;51.960;8.542;2023-05-14T07:17:27;23.47;;;22.17;;
2019;SDS011;1014;51.960;8.542;2023-05-14T07:19:54;23.30;;;21.90;;
2019;SDS011;1014;51.960;8.542;2023-05-14T07:22:21;23.47;;;22.07;;
2019;SDS011;1014;51.960;8.542;2023-05-14T07:24:49;23.47;;;22.17;;
2019;SDS011;1014;51.960;8.542;2023-05-14T07:27:16;23.57;;;22.27;;
2019;SDS011;1014;51.960;8.542;2023-05-14T07:29:43;23.60;;;22.20;;
2019;SDS011;1014;51.960;8.542;2023-05-14T07:32:10;23.50;;;22.10;;
2019;SDS011;1014;51.960;8.542;2023-05-14T07:34:37;24.37;;;23.00;;
2019;SDS011;1014;51.960;8.542;2023-05-14T07:37:04;23.40;;;22.10;;
2019;SDS011;1014;51.960;8.542;2023-05-14T07:39:31;23.10;;;21.83;;
2019;SDS011;1014;51.960;8.542;2023-05-14T07:42:00;24.47;;;23.10;;
2019;SDS011;1014;51.960;8.542;2023-05-14T07:44:27;24.00;;;22.70;;
2019;SDS011;1014;51.960;8.542;2023-05-14T07:46:54;24.30;;;22.90;;
2019;SDS011;1014;51.960;8.542;2023-05-14T07:49:21;23.30;;;22.10;;
2019;SDS011;1014;51.960;8.542;2023-05-14T07:51:48;23.50;;;22.20;;
2019;SDS011;1014;51.960;8.542;2023-05-14T07:54:15;24.43;;;23.10;;
2019;SDS011;1014;51.960;8.542;2023-05-14T07:56:42;23.30;;;22.00;;
2019;SDS011;1014;51.960;8.542;2023-05-14T07:59:10;23.80;;;22.50;;
2019;SDS011;1014;51.960;8.542;2023-05-14T08:01:37;23.00;;;21.70;;
2019;SDS011;1014;51.960;8.542;2023-05-14T08:04:04;24.53;;;22.93;;
2019;SDS011;1014;51.960;8.542;2023-05-14T08:06:31;25.57;;;23.93;;
2019;SDS011;1014;51.960;8.542;2023-05-14T08:08:58;26.07;;;24.63;;
2019;SDS011;1014;51.960;8.542;2023-05-14T08:11:25;24.53;;;23.13;;
2019;SDS011;1014;51.960;8.542;2023-05-14T08:13:52;24.30;;;23.00;;
2019;SDS011;1014;51.960;8.542;2023-05-14T08:16:21;24.27;;;22.87;;
2019;SDS011;1014;51.960;8.542;2023-05-14T08:18:50;23.70;;;22.30;;
2019;SDS011;1014;51.960;8.542;2023-05-14T08:21:17;24.20;;;22.90;;
2019;SDS011;1014;51.960;8.542;2023-05-14T08:23:44;23.87;;;22.57;;
2019;SDS011;1014;51.960;8.542;2023-05-14T08:26:11;24.00;;;22.70;;
2019;SDS011;1014;51.960;8.542;2023-05-14T08:28:38;24.60;;;23.20;;
2019;SDS011;1014;51.960;8.542;2023-05-14T08:31:05;26.70;;;24.87;;
2019;SDS011;1014;51.960;8.542;2023-05-14T08:33:33;24.67;;;23.27;;
2019;SDS011;1014;51.960;8.542;2023-05-14T08:36:00;23.70;;;22.40;;
2019;SDS011;1014;51.960;8.542;2023-05-14T08:38:27;23.93;;;22.60;;
2019;SDS011;1014;51.960;8.542;2023-05-14T08:40:55;25.00;;;23.50;;
2019;SDS011;1014;51.960;8.542;2023-05-14T08:43:24;23.87;;;22.47;;
2019;SDS011;1014;51.960;8.542;2023-05-14T08:45:52;24.70;;;23.30;;
2019;SDS011;1014;51.960;8.542;2023-05-14T08:48:19;23.70;;;22.40;;
2019;SDS011;1014;51.960;8.542;2023-05-14T08:50:49;23.60;;;22.30;;
2019;SDS011;1014;51.960;8.542;2023-05-14T08:53:16;24.23;;;22.83;;
2019;SDS011;1014;51.960;8.542;2023-05-14T08:55:43;23.50;;;22.20;;
2019;SDS011;1014;51.960;8.542;2023-05-14T08:58:12;22.67;;;21.27;;
2019;SDS011;1014;51.960;8.542;2023-05-14T09:00:39;23.70;;;22.40;;
2019;SDS011;1014;51.960;8.542;2023-05-14T09:03:06;23.33;;;22.03;;
2019;SDS011;1014;51.960;8.542;2023-05-14T09:05:36;24.40;;;23.00;;
2019;SDS011;1014;51.960;8.542;2023-05-14T09:08:04;23.70;;;22.30;;
2019;SDS011;1014;51.960;8.542;2023-05-14T09:10:31;24.20;;;22.90;;
2019;SDS011;1014;51.960;8.542;2023-05-14T09:12:58;23.67;;;22.10;;
2019;SDS011;1014;51.960;8.542;2023-05-14T09:15:25;22.60;;;21.30;;
2019;SDS011;1014;51.960;8.542;2023-05-14T09:17:53;23.10;;;21.70;;
2019;SDS011;1014;51.960;8.542;2023-05-14T09:20:20;24.30;;;22.90;;
2019;SDS011;1014;51.960;8.542;2023-05-14T09:22:48;23.17;;;21.87;;
2019;SDS011;1014;51.960;8.542;2023-05-14T09:25:19;24.10;;;22.80;;
2019;SDS011;1014;51.960;8.542;2023-05-14T09:27:46;23.70;;;22.30;;
2019;SDS011;1014;51.960;8.542;2023-05-14T09:30:14;23.97;;;22.67;;
2019;SDS011;1014;51.960;8.542;2023-05-14T09:32:42;24.43;;;23.03;;
2019;SDS011;1014;51.960;8.542;2023-05-14T09:35:13;23.80;;;22.20;;
2019;SDS011;1014;51.960;8.542;2023-05-14T09:37:41;24.50;;;23.10;;
2019;SDS011;1014;51.960;8.542;2023-05-14T09:40:09;23.00;;;21.70;;
2019;SDS011;1014;51.960;8.542;2023-05-14T09:42:37;23.17;;;21.87;;
2019;SDS011;1014;51.960;8.542;2023-05-14T09:45:06;23.03;;;21.83;;
2019;SDS011;1014;51.960;8.542;2023-05-14T09:47:33;24.00;;;22.70;;
2019;SDS011;1014;51.960;8.542;2023-05-14T09:50:00;23.63;;;22.33;;
2019;SDS011;1014;51.960;8.542;2023-05-14T09:52:27;25.50;;;23.77;;
2019;SDS011;1014;51.960;8.542;2023-05-14T09:54:54;22.93;;;21.53;;
2019;SDS011;1014;51.960;8.542;2023-05-14T09:57:21;23.20;;;21.90;;
2019;SDS011;1014;51.960;8.542;2023-05-14T09:59:49;24.80;;;23.40;;
2019;SDS011;1014;51.960;8.542;2023-05-14T10:02:19;23.93;;;22.53;;
2019;SDS011;1014;51.960;8.542;2023-05-14T10:04:47;24.17;;;22.67;;
2019;SDS011;1014;51.960;8.542;2023-05-14T10:07:16;23.13;;;21.73;;
2019;SDS011;1014;51.960;8.542;2023-05-14T10:09:44;23.40;;;22.10;;
2019;SDS011;1014;51.960;8.542;2023-05-14T10:12:12;23.50;;;22.10;;
2019;SDS011;1014;51.960;8.542;2023-05-14T10:14:41;24.40;;;22.90;;
2019;SDS011;1014;51.960;8.542;2023-05-14T10:17:10;22.73;;;21.33;;
2019;SDS011;1014;51.960;8.542;2023-05-14T10:19:42;23.17;;;21.77;;
2019;SDS011;1014;51.960;8.542;2023-05-14T10:22:11;22.97;;;21.67;;
2019;SDS011;1014;51.960;8.542;2023-05-14T10:24:41;23.10;;;21.70;;
2019;SDS011;1014;51.960;8.542;2023-05-14T10:27:08;22.67;;;21.23;;
2019;SDS011;1014;51.960;8.542;2023-05-14T10:29:36;22.67;;;21.37;;
2019;SDS011;1014;51.960;8.542;2023-05-14T10:32:03;22.73;;;21.40;;
2019;SDS011;1014;51.960;8.542;2023-05-14T10:34:33;23.63;;;22.33;;
2019;SDS011;1014;51.960;8.542;2023-05-14T10:37:01;22.70;;;21.40;;
2019;SDS011;1014;51.960;8.542;2023-05-14T10:42:11;22.80;;;21.50;;
2019;SDS011;1014;51.960;8.542;2023-05-14T10:44:40;23.47;;;22.17;;
2019;SDS011;1014;51.960;8.542;2023-05-14T10:47:08;23.90;;;22.50;;
2019;SDS011;1014;51.960;8.542;2023-05-14T10:49:36;22.77;;;21.57;;
2019;SDS011;1014;51.960;8.542;2023-05-14T10:52:06;23.17;;;21.87;;
2019;SDS011;1014;51.960;8.542;2023-05-14T10:54:33;24.43;;;23.07;;
2019;SDS011;1014;51.960;8.542;2023-05-14T10:57:00;23.43;;;22.03;;
2019;SDS011;1014;51.960;8.542;2023-05-14T10:59:28;23.80;;;22.50;;
2019;SDS011;1014;51.960;8.542;2023-05-14T11:01:55;24.37;;;22.87;;
2019;SDS011;1014;51.960;8.542;2023-05-14T11:04:22;24.57;;;23.17;;
2019;SDS011;1014;51.960;8.542;2023-05-14T11:06:51;23.47;;;22.10;;
2019;SDS011;1014;51.960;8.542;2023-05-14T11:09:19;23.00;;;21.70;;
2019;SDS011;1014;51.960;8.542;2023-05-14T11:11:47;22.97;;;21.67;;
2019;SDS011;1014;51.960;8.542;2023-05-14T11:14:15;23.67;;;22.37;;
2019;SDS011;1014;51.960;8.542;2023-05-14T11:16:42;23.37;;;21.80;;
2019;SDS011;1014;51.960;8.542;2023-05-14T11:19:09;23.70;;;22.30;;
2019;SDS011;1014;51.960;8.542;2023-05-14T11:21:36;23.50;;;22.10;;
2019;SDS011;1014;51.960;8.542;2023-05-14T11:24:05;23.93;;;22.53;;
2019;SDS011;1014;51.960;8.542;2023-05-14T11:26:32;24.00;;;22.70;;
2019;SDS011;1014;51.960;8.542;2023-05-14T11:28:59;23.00;;;21.80;;
2019;SDS011;1014;51.960;8.542;2023-05-14T11:31:26;24.10;;;22.80;;
2019;SDS011;1014;51.960;8.542;2023-05-14T11:33:53;23.57;;;22.27;;
2019;SDS011;1014;51.960;8.542;2023-05-14T11:36:20;23.77;;;22.27;;
2019;SDS011;1014;51.960;8.542;2023-05-14T11:38:48;23.13;;;21.83;;
2019;SDS011;1014;51.960;8.542;2023-05-14T11:41:17;22.87;;;21.57;;
2019;SDS011;1014;51.960;8.542;2023-05-14T11:43:45;23.40;;;22.10;;
2019;SDS011;1014;51.960;8.542;2023-05-14T11:46:15;23.20;;;22.00;;
2019;SDS011;1014;51.960;8.542;2023-05-14T11:48:43;23.60;;;22.30;;
2019;SDS011;1014;51.960;8.542;2023-05-14T11:51:10;23.37;;;22.07;;
2019;SDS011;1014;51.960;8.542;2023-05-14T11:53:37;24.10;;;22.73;;
2019;SDS011;1014;51.960;8.542;2023-05-14T11:56:04;24.40;;;23.00;;
2019;SDS011;1014;51.960;8.542;2023-05-14T11:58:33;22.97;;;21.67;;
2019;SDS011;1014;51.960;8.542;2023-05-14T12:01:00;23.47;;;22.17;;
2019;SDS011;1014;51.960;8.542;2023-05-14T12:03:27;25.03;;;23.63;;
2019;SDS011;1014;51.960;8.542;2023-05-14T12:05:55;23.50;;;22.20;;
2019;SDS011;1014;51.960;8.542;2023-05-14T12:08:25;23.17;;;21.87;;
2019;SDS011;1014;51.960;8.542;2023-05-14T12:10:52;23.40;;;22.10;;
2019;SDS011;1014;51.960;8.542;2023-05-14T12:13:19;23.87;;;22.57;;
2019;SDS011;1014;51.960;8.542;2023-05-14T12:15:52;24.00;;;22.40;;
2019;SDS011;1014;51.960;8.542;2023-05-14T12:18:19;24.37;;;22.97;;
2019;SDS011;1014;51.960;8.542;2023-05-14T12:20:46;24.27;;;22.90;;
2019;SDS011;1014;51.960;8.542;2023-05-14T12:23:15;23.40;;;22.10;;
2019;SDS011;1014;51.960;8.542;2023-05-14T12:25:48;23.93;;;22.53;;
2019;SDS011;1014;51.960;8.542;2023-05-14T12:28:15;24.10;;;22.70;;
2019;SDS011;1014;51.960;8.542;2023-05-14T12:30:42;24.10;;;22.70;;
2019;SDS011;1014;51.960;8.542;2023-05-14T12:33:11;23.20;;;21.90;;
2019;SDS011;1014;51.960;8.542;2023-05-14T12:35:38;24.13;;;22.73;;
2019;SDS011;1014;51.960;8.542;2023-05-14T12:38:05;23.40;;;22.10;;
2019;SDS011;1014;51.960;8.542;2023-05-14T12:40:33;23.37;;;22.07;;
2019;SDS011;1014;51.960;8.542;2023-05-14T12:43:00;22.93;;;21.63;;
2019;SDS011;1014;51.960;8.542;2023-05-14T12:45:29;23.23;;;21.93;;
2019;SDS011;1014;51.960;8.542;2023-05-14T12:47:56;23.60;;;22.00;;
2019;SDS011;1014;51.960;8.542;2023-05-14T12:50:24;23.10;;;21.80;;
2019;SDS011;1014;51.960;8.542;2023-05-14T12:52:51;24.33;;;22.93;;
2019;SDS011;1014;51.960;8.542;2023-05-14T12:55:18;23.90;;;22.50;;
2019;SDS011;1014;51.960;8.542;2023-05-14T12:57:45;23.60;;;22.27;;
2019;SDS011;1014;51.960;8.542;2023-05-14T13:00:13;22.87;;;21.57;;
2019;SDS011;1014;51.960;8.542;2023-05-14T13:02:40;22.30;;;21.10;;
2019;SDS011;1014;51.960;8.542;2023-05-14T13:05:08;22.13;;;20.83;;
2019;SDS011;1014;51.960;8.542;2023-05-14T13:07:36;23.90;;;22.60;;
2019;SDS011;1014;51.960;8.542;2023-05-14T13:10:03;24.47;;;23.07;;
2019;SDS011;1014;51.960;8.542;2023-05-14T13:12:30;23.50;;;22.10;;
2019;SDS011;1014;51.960;8.542;2023-05-14T13:14:57;24.37;;;22.97;;
2019;SDS011;1014;51.960;8.542;2023-05-14T13:17:24;22.70;;;21.40;;
2019;SDS011;1014;51.960;8.542;2023-05-14T13:19:51;23.80;;;22.50;;
2019;SDS011;1014;51.960;8.542;2023-05-14T13:22:18;23.40;;;21.80;;
2019;SDS011;1014;51.960;8.542;2023-05-14T13:24:47;23.50;;;22.10;;
2019;SDS011;1014;51.960;8.542;2023-05-14T13:27:14;23.73;;;22.43;;
2019;SDS011;1014;51.960;8.542;2023-05-14T13:29:41;24.17;;;22.87;;
2019;SDS011;1014;51.960;8.542;2023-05-14T13:32:08;25.60;;;24.20;;
2019;SDS011;1014;51.960;8.542;2023-05-14T13:34:35;24.63;;;23.23;;
2019;SDS011;1014;51.960;8.542;2023-05-14T13:37:02;24.33;;;22.83;;
2019;SDS011;1014;51.960;8.542;2023-05-14T13:39:29;23.67;;;22.37;;
2019;SDS011;1014;51.960;8.542;2023-05-14T13:41:57;23.80;;;22.40;;
2019;SDS011;1014;51.960;8.542;2023-05-14T13:44:25;23.13;;;21.80;;
2019;SDS011;1014;51.960;8.542;2023-05-14T13:46:52;23.10;;;21.73;;
2019;SDS011;1014;51.960;8.542;2023-05-14T13:49:19;23.60;;;22.20;;
2019;SDS011;1014;51.960;8.542;2023-05-14T13:51:46;23.07;;;21.80;;
2019;SDS011;1014;51.960;8.542;2023-05-14T13:54:13;22.80;;;21.50;;
2019;SDS011;1014;51.960;8.542;2023-05-14T13:56:40;22.63;;;21.40;;
2019;SDS011;1014;51.960;8.542;2023-05-14T13:59:08;22.37;;;21.17;;
2019;SDS011;1014;51.960;8.542;2023-05-14T14:01:35;23.67;;;22.37;;
2019;SDS011;1014;51.960;8.542;2023-05-14T14:04:02;24.13;;;22.73;;
2019;SDS011;1014;51.960;8.542;2023-05-14T14:06:30;23.00;;;21.70;;
2019;SDS011;1014;51.960;8.542;2023-05-14T14:08:57;23.00;;;21.70;;
2019;SDS011;1014;51.960;8.542;2023-05-14T14:11:24;23.13;;;21.73;;
2019;SDS011;1014;51.960;8.542;2023-05-14T14:13:51;23.77;;;22.37;;
2019;SDS011;1014;51.960;8.542;2023-05-14T14:16:19;23.03;;;21.83;;
2019;SDS011;1014;51.960;8.542;2023-05-14T14:18:46;23.40;;;22.10;;
2019;SDS011;1014;51.960;8.542;2023-05-14T14:21:13;22.33;;;21.13;;
2019;SDS011;1014;51.960;8.542;2023-05-14T14:23:42;23.50;;;22.30;;
2019;SDS011;1014;51.960;8.542;2023-05-14T14:26:09;23.33;;;22.00;;
2019;SDS011;1014;51.960;8.542;2023-05-14T14:28:35;22.47;;;21.27;;
2019;SDS011;1014;51.960;8.542;2023-05-14T14:31:04;22.73;;;21.50;;
2019;SDS011;1014;51.960;8.542;2023-05-14T14:33:32;22.73;;;21.53;;
2019;SDS011;1014;51.960;8.542;2023-05-14T14:35:59;23.47;;;22.17;;
2019;SDS011;1014;51.960;8.542;2023-05-14T14:38:26;23.23;;;21.93;;
2019;SDS011;1014;51.960;8.542;2023-05-14T14:40:53;22.30;;;21.10;;
2019;SDS011;1014;51.960;8.542;2023-05-14T14:43:20;22.73;;;21.50;;
2019;SDS011;1014;51.960;8.542;2023-05-14T14:45:47;23.30;;;22.00;;
2019;SDS011;1014;51.960;8.542;2023-05-14T14:48:21;22.40;;;21.10;;
2019;SDS011;1014;51.960;8.542;2023-05-14T14:50:50;22.60;;;21.30;;
2019;SDS011;1014;51.960;8.542;2023-05-14T14:53:17;23.43;;;22.13;;